createdAt,value
2018-11-23T00:00:50.767Z,93994.63
2018-11-23T00:03:19.279Z,93997.95
2018-11-23T00:05:47.577Z,94003.52
2018-11-23T00:08:16.101Z,94005.37
2018-11-23T00:10:44.430Z,94005.41
2018-11-23T00:13:12.919Z,94005.33
2018-11-23T00:15:41.197Z,94013.92
2018-11-23T00:18:09.827Z,94021.29
2018-11-23T00:20:38.416Z,94020.27
2018-11-23T00:23:06.866Z,94020.49
2018-11-23T00:25:35.461Z,94024.77
2018-11-23T00:28:04.073Z,94032.78
2018-11-23T00:30:32.439Z,94026.92
2018-11-23T00:33:00.906Z,94028.70
2018-11-23T00:35:30.659Z,94033.70
2018-11-23T00:37:59.370Z,94041.90
2018-11-23T00:40:30.115Z,94039.17
2018-11-23T00:42:58.922Z,94035.20
2018-11-23T00:45:27.700Z,94036.64
2018-11-23T00:47:57.048Z,94040.34
2018-11-23T00:50:26.269Z,94038.69
2018-11-23T00:52:55.586Z,94041.67
2018-11-23T00:55:25.168Z,94045.45
2018-11-23T00:57:53.683Z,94044.20
2018-11-23T01:00:23.666Z,94048.11
2018-11-23T01:02:52.527Z,94043.38
2018-11-23T01:05:21.075Z,94048.74
2018-11-23T01:07:49.841Z,94049.88
2018-11-23T01:10:19.332Z,94051.39
2018-11-23T01:13:02.838Z,94050.59
2018-11-23T01:15:31.556Z,94055.40
2018-11-23T01:18:00.215Z,94053.02
2018-11-23T01:20:28.878Z,94050.45
2018-11-23T01:22:57.964Z,94054.77
2018-11-23T01:25:27.162Z,94056.46
2018-11-23T01:27:55.857Z,94054.00
2018-11-23T01:30:25.577Z,94053.59
2018-11-23T01:32:54.153Z,94055.59
2018-11-23T01:35:22.789Z,94052.64
2018-11-23T01:37:51.234Z,94050.25
2018-11-23T01:40:20.928Z,94045.11
2018-11-23T01:42:49.557Z,94050.64
2018-11-23T01:45:18.037Z,94050.75
2018-11-23T01:47:46.425Z,94051.58
2018-11-23T01:50:16.849Z,94050.75
2018-11-23T01:52:46.390Z,94046.78
2018-11-23T01:55:15.715Z,94044.70
2018-11-23T01:57:44.466Z,94049.31
2018-11-23T02:00:14.958Z,94050.11
2018-11-23T02:02:43.691Z,94045.91
2018-11-23T02:05:12.202Z,94045.45
2018-11-23T02:07:40.769Z,94046.40
2018-11-23T02:10:10.079Z,94057.91
2018-11-23T02:12:38.511Z,94057.64
2018-11-23T02:15:08.809Z,94050.11
2018-11-23T02:17:37.229Z,94051.96
2018-11-23T02:20:07.745Z,94049.05
2018-11-23T02:22:36.010Z,94047.04
2018-11-23T02:25:04.933Z,94057.74
2018-11-23T02:27:33.308Z,94061.19
2018-11-23T02:30:01.909Z,94064.33
2018-11-23T02:32:30.529Z,94062.43
2018-11-23T02:34:59.058Z,94069.62
2018-11-23T02:37:27.463Z,94068.06
2018-11-23T02:39:55.986Z,94064.35
2018-11-23T02:42:24.408Z,94060.30
2018-11-23T02:44:52.819Z,94056.41
2018-11-23T02:47:21.197Z,94060.59
2018-11-23T02:49:49.716Z,94056.36
2018-11-23T02:52:18.330Z,94060.42
2018-11-23T02:54:46.576Z,94054.23
2018-11-23T02:57:15.143Z,94059.45
2018-11-23T02:59:43.558Z,94063.34
2018-11-23T03:02:11.850Z,94067.70
2018-11-23T03:04:40.296Z,94065.69
2018-11-23T03:07:08.634Z,94064.66
2018-11-23T03:09:37.071Z,94065.63
2018-11-23T03:12:05.533Z,94070.73
2018-11-23T03:14:33.933Z,94073.99
2018-11-23T03:17:05.300Z,94073.33
2018-11-23T03:19:33.603Z,94072.05
2018-11-23T03:22:02.012Z,94079.36
2018-11-23T03:24:30.217Z,94075.72
2018-11-23T03:26:58.514Z,94077.33
2018-11-23T03:29:26.848Z,94083.01
2018-11-23T03:31:55.133Z,94081.16
2018-11-23T03:34:23.422Z,94086.27
2018-11-23T03:36:51.986Z,94079.55
2018-11-23T03:39:20.306Z,94075.34
2018-11-23T03:41:48.541Z,94073.17
2018-11-23T03:44:16.814Z,94078.81
2018-11-23T03:46:45.010Z,94078.00
2018-11-23T03:49:13.360Z,94081.43
2018-11-23T03:51:41.638Z,94085.37
2018-11-23T03:54:10.148Z,94087.99
2018-11-23T03:56:38.397Z,94089.22
2018-11-23T03:59:06.838Z,94088.74
2018-11-23T04:01:35.262Z,94093.00
2018-11-23T04:04:03.651Z,94096.41
2018-11-23T04:06:32.306Z,94094.20
2018-11-23T04:09:00.630Z,94098.02
2018-11-23T04:11:29.065Z,94089.37
2018-11-23T04:13:57.553Z,94085.34
2018-11-23T04:16:25.860Z,94084.70
2018-11-23T04:18:54.518Z,94089.36
2018-11-23T04:21:23.630Z,94093.53
2018-11-23T04:23:52.236Z,94087.00
2018-11-23T04:26:24.855Z,94091.63
2018-11-23T04:28:49.339Z,94091.55
2018-11-23T04:31:18.036Z,94098.72
2018-11-23T04:33:46.651Z,94104.20
2018-11-23T04:36:15.141Z,94100.26
2018-11-23T04:38:43.508Z,94104.05
2018-11-23T04:41:12.002Z,94104.37
2018-11-23T04:43:40.410Z,94100.13
2018-11-23T04:46:08.974Z,94097.53
2018-11-23T04:48:37.992Z,94105.55
2018-11-23T04:51:06.453Z,94108.55
2018-11-23T04:53:34.816Z,94103.38
2018-11-23T04:56:03.498Z,94107.64
2018-11-23T04:58:32.002Z,94108.86
2018-11-23T05:01:00.579Z,94108.02
2018-11-23T05:03:28.933Z,94108.38
2018-11-23T05:05:57.604Z,94108.83
2018-11-23T05:08:26.053Z,94103.66
2018-11-23T05:10:54.916Z,94116.44
2018-11-23T05:13:23.278Z,94121.95
2018-11-23T05:15:51.795Z,94114.77
2018-11-23T05:18:20.470Z,94121.51
2018-11-23T05:20:48.850Z,94126.13
2018-11-23T05:23:17.891Z,94122.56
2018-11-23T05:25:46.231Z,94122.59
2018-11-23T05:28:15.866Z,94125.55
2018-11-23T05:30:44.303Z,94125.48
2018-11-23T05:33:12.938Z,94128.05
2018-11-23T05:35:41.580Z,94123.66
2018-11-23T05:38:10.121Z,94127.95
2018-11-23T05:40:38.630Z,94120.62
2018-11-23T05:43:07.320Z,94127.92
2018-11-23T05:45:36.069Z,94132.96
2018-11-23T05:48:05.035Z,94140.70
2018-11-23T05:50:33.693Z,94141.17
2018-11-23T05:53:02.286Z,94140.97
2018-11-23T05:55:30.841Z,94142.45
2018-11-23T05:57:59.498Z,94147.56
2018-11-23T06:00:29.847Z,94151.35
2018-11-23T06:02:58.503Z,94147.46
2018-11-23T06:05:27.179Z,94154.72
2018-11-23T06:07:55.903Z,94160.21
2018-11-23T06:10:24.539Z,94171.20
2018-11-23T06:12:53.112Z,94173.14
2018-11-23T06:15:22.909Z,94180.19
2018-11-23T06:17:51.922Z,94185.86
2018-11-23T06:20:21.560Z,94184.63
2018-11-23T06:22:50.861Z,94182.53
2018-11-23T06:25:32.716Z,94186.66
2018-11-23T06:28:01.789Z,94192.14
2018-11-23T06:30:30.250Z,94190.24
2018-11-23T06:33:09.642Z,94204.13
2018-11-23T06:35:38.183Z,94209.66
2018-11-23T06:38:06.851Z,94197.92
2018-11-23T06:40:35.335Z,94191.77
2018-11-23T06:43:04.993Z,94185.76
2018-11-23T06:45:37.714Z,94187.74
2018-11-23T06:48:07.345Z,94191.81
2018-11-23T06:50:35.893Z,94188.13
2018-11-23T06:53:04.721Z,94203.23
2018-11-23T06:55:33.407Z,94207.95
2018-11-23T06:58:01.764Z,94197.16
2018-11-23T07:00:30.520Z,94205.12
2018-11-23T07:02:59.206Z,94206.03
2018-11-23T07:05:28.955Z,94207.96
2018-11-23T07:07:57.453Z,94208.98
2018-11-23T07:10:26.137Z,94208.79
2018-11-23T07:12:54.515Z,94213.44
2018-11-23T07:15:23.112Z,94209.83
2018-11-23T07:17:51.689Z,94212.36
2018-11-23T07:20:20.094Z,94209.97
2018-11-23T07:22:48.651Z,94218.95
2018-11-23T07:25:17.164Z,94221.41
2018-11-23T07:27:45.590Z,94222.20
2018-11-23T07:30:16.187Z,94222.33
2018-11-23T07:32:44.652Z,94229.02
2018-11-23T07:35:13.607Z,94235.99
2018-11-23T07:37:42.080Z,94244.59
2018-11-23T07:40:22.545Z,94249.30
2018-11-23T07:42:51.294Z,94250.41
2018-11-23T07:45:19.668Z,94260.23
2018-11-23T07:47:48.139Z,94260.05
2018-11-23T07:50:16.871Z,94257.56
2018-11-23T07:52:45.195Z,94257.97
2018-11-23T07:55:13.888Z,94247.35
2018-11-23T07:57:42.290Z,94254.03
2018-11-23T08:00:13.968Z,94254.25
2018-11-23T08:02:43.931Z,94260.97
2018-11-23T08:05:13.599Z,94263.23
2018-11-23T08:07:42.091Z,94270.73
2018-11-23T08:10:10.840Z,94271.23
2018-11-23T08:12:40.541Z,94277.39
2018-11-23T08:15:10.985Z,94274.45
2018-11-23T08:17:39.926Z,94267.03
2018-11-23T08:20:09.532Z,94269.95
2018-11-23T08:22:38.300Z,94280.81
2018-11-23T08:25:07.646Z,94283.14
2018-11-23T08:27:36.195Z,94278.19
2018-11-23T08:30:07.107Z,94281.40
2018-11-23T08:32:36.115Z,94279.94
2018-11-23T08:35:04.485Z,94275.45
2018-11-23T08:37:33.028Z,94277.69
2018-11-23T08:40:01.397Z,94279.55
2018-11-23T08:42:29.981Z,94275.79
2018-11-23T08:45:12.936Z,94265.80
2018-11-23T08:47:43.060Z,94274.55
2018-11-23T08:50:14.982Z,94272.25
2018-11-23T08:52:43.519Z,94272.72
2018-11-23T08:55:14.524Z,94271.69
2018-11-23T08:57:43.277Z,94263.51
2018-11-23T09:00:17.044Z,94270.07
2018-11-23T09:02:46.802Z,94272.75
2018-11-23T09:05:16.108Z,94274.96
2018-11-23T09:07:46.317Z,94281.02
2018-11-23T09:10:16.765Z,94278.97
2018-11-23T09:12:46.928Z,94279.06
2018-11-23T09:15:15.753Z,94283.06
2018-11-23T09:17:44.641Z,94288.41
2018-11-23T09:20:13.737Z,94282.63
2018-11-23T09:22:42.502Z,94282.89
2018-11-23T09:25:13.598Z,94281.04
2018-11-23T09:27:42.420Z,94279.97
2018-11-23T09:30:15.102Z,94278.39
2018-11-23T09:32:45.459Z,94275.13
2018-11-23T09:35:13.884Z,94274.78
2018-11-23T09:37:42.655Z,94278.48
2018-11-23T09:40:13.615Z,94267.34
2018-11-23T09:42:42.149Z,94265.39
2018-11-23T09:45:12.966Z,94258.17
2018-11-23T09:47:41.803Z,94253.42
2018-11-23T09:50:13.489Z,94250.80
2018-11-23T09:52:42.294Z,94252.16
2018-11-23T09:55:11.076Z,94248.66
2018-11-23T09:57:39.846Z,94249.27
2018-11-23T10:00:14.038Z,94256.24
2018-11-23T10:02:44.271Z,94251.09
2018-11-23T10:05:13.461Z,94248.51
2018-11-23T10:07:43.079Z,94251.03
2018-11-23T10:10:13.700Z,94244.44
2018-11-23T10:12:42.957Z,94247.86
2018-11-23T10:15:12.730Z,94241.26
2018-11-23T10:17:41.925Z,94243.59
2018-11-23T10:20:12.828Z,94237.67
2018-11-23T10:22:41.650Z,94238.54
2018-11-23T10:25:11.501Z,94233.02
2018-11-23T10:27:40.694Z,94229.47
2018-11-23T10:30:12.053Z,94231.26
2018-11-23T10:32:40.717Z,94236.72
2018-11-23T10:35:09.889Z,94237.89
2018-11-23T10:37:39.380Z,94241.84
2018-11-23T10:40:10.232Z,94241.10
2018-11-23T10:42:39.154Z,94236.02
2018-11-23T10:45:13.408Z,94232.77
2018-11-23T10:47:41.980Z,94227.22
2018-11-23T10:50:13.282Z,94224.26
2018-11-23T10:52:42.706Z,94221.72
2018-11-23T10:55:14.198Z,94219.59
2018-11-23T10:57:42.822Z,94219.30
2018-11-23T11:00:21.361Z,94215.09
2018-11-23T11:02:56.811Z,94211.05
2018-11-23T11:05:31.158Z,94207.97
2018-11-23T11:08:01.220Z,94214.26
2018-11-23T11:10:29.729Z,94212.78
2018-11-23T11:12:58.436Z,94209.41
2018-11-23T11:15:27.096Z,94212.67
2018-11-23T11:17:55.868Z,94209.14
2018-11-23T11:20:24.375Z,94210.93
2018-11-23T11:22:52.906Z,94200.90
2018-11-23T11:25:21.614Z,94199.64
2018-11-23T11:27:50.421Z,94190.77
2018-11-23T11:30:19.360Z,94195.62
2018-11-23T11:32:48.379Z,94199.45
2018-11-23T11:35:16.864Z,94196.20
2018-11-23T11:37:45.583Z,94193.84
2018-11-23T11:40:15.812Z,94190.84
2018-11-23T11:42:44.631Z,94184.24
2018-11-23T11:45:14.473Z,94186.66
2018-11-23T11:47:43.858Z,94181.72
2018-11-23T11:50:12.849Z,94189.05
2018-11-23T11:52:42.650Z,94191.49
2018-11-23T11:55:13.056Z,94189.00
2018-11-23T11:57:41.716Z,94188.47
2018-11-23T12:00:15.411Z,94191.02
2018-11-23T12:02:44.292Z,94194.08
2018-11-23T12:05:13.260Z,94189.70
2018-11-23T12:07:41.629Z,94190.63
2018-11-23T12:10:13.649Z,94191.54
2018-11-23T12:12:41.883Z,94195.92
2018-11-23T12:15:11.226Z,94199.12
2018-11-23T12:17:39.786Z,94194.52
2018-11-23T12:20:11.862Z,94200.48
2018-11-23T12:22:40.228Z,94191.45
2018-11-23T12:25:08.935Z,94193.67
2018-11-23T12:27:37.520Z,94185.66
2018-11-23T12:30:08.622Z,94184.73
2018-11-23T12:32:37.050Z,94193.89
2018-11-23T12:35:06.816Z,94199.70
2018-11-23T12:37:35.464Z,94200.67
2018-11-23T12:40:04.565Z,94193.28
2018-11-23T12:42:33.369Z,94189.41
2018-11-23T12:45:01.989Z,94191.22
2018-11-23T12:47:30.718Z,94196.55
2018-11-23T12:50:00.347Z,94203.06
2018-11-23T12:52:29.048Z,94198.23
2018-11-23T12:54:57.994Z,94196.58
2018-11-23T12:57:26.757Z,94195.05
2018-11-23T12:59:55.353Z,94190.31
2018-11-23T13:02:24.454Z,94188.78
2018-11-23T13:04:53.873Z,94186.83
2018-11-23T13:07:22.534Z,94191.39
2018-11-23T13:09:51.296Z,94189.64
2018-11-23T13:12:20.017Z,94191.98
2018-11-23T13:14:48.761Z,94184.56
2018-11-23T13:17:17.270Z,94177.85
2018-11-23T13:19:46.077Z,94172.80
2018-11-23T13:22:14.590Z,94173.66
2018-11-23T13:24:43.333Z,94173.89
2018-11-23T13:27:15.699Z,94172.41
2018-11-23T13:29:45.861Z,94180.63
2018-11-23T13:32:14.737Z,94181.64
2018-11-23T13:34:43.524Z,94179.11
2018-11-23T13:37:12.242Z,94172.71
2018-11-23T13:39:40.684Z,94170.74
2018-11-23T13:42:09.311Z,94176.09
2018-11-23T13:44:37.947Z,94172.59
2018-11-23T13:47:06.915Z,94181.30
2018-11-23T13:49:35.505Z,94183.36
2018-11-23T13:52:04.974Z,94184.03
2018-11-23T13:54:34.037Z,94185.99
2018-11-23T13:57:02.798Z,94180.58
2018-11-23T13:59:32.104Z,94178.92
2018-11-23T14:02:00.913Z,94176.39
2018-11-23T14:04:29.471Z,94183.59
2018-11-23T14:06:58.116Z,94183.49
2018-11-23T14:09:26.757Z,94177.31
2018-11-23T14:11:55.652Z,94171.88
2018-11-23T14:14:24.195Z,94169.94
2018-11-23T14:16:52.862Z,94171.70
2018-11-23T14:19:22.237Z,94174.11
2018-11-23T14:21:50.972Z,94174.06
2018-11-23T14:24:19.583Z,94177.22
2018-11-23T14:26:47.975Z,94179.05
2018-11-23T14:29:16.608Z,94181.29
2018-11-23T14:31:45.214Z,94185.47
2018-11-23T14:34:13.924Z,94188.97
2018-11-23T14:36:42.500Z,94195.26
2018-11-23T14:39:11.185Z,94196.25
2018-11-23T14:41:39.923Z,94203.64
2018-11-23T14:44:08.517Z,94192.70
2018-11-23T14:46:36.973Z,94201.17
2018-11-23T14:49:06.095Z,94203.14
2018-11-23T14:51:34.716Z,94203.83
2018-11-23T14:54:03.361Z,94208.45
2018-11-23T14:56:32.088Z,94211.64
2018-11-23T14:59:00.887Z,94208.52
2018-11-23T15:01:29.373Z,94213.44
2018-11-23T15:03:58.021Z,94210.14
2018-11-23T15:06:26.639Z,94206.28
2018-11-23T15:08:55.167Z,94211.66
2018-11-23T15:11:23.745Z,94213.22
2018-11-23T15:13:52.360Z,94220.61
2018-11-23T15:16:21.077Z,94223.72
2018-11-23T15:18:50.597Z,94222.16
2018-11-23T15:21:19.253Z,94221.17
2018-11-23T15:23:47.859Z,94220.34
2018-11-23T15:26:16.461Z,94218.14
2018-11-23T15:28:45.215Z,94211.17
2018-11-23T15:31:13.865Z,94216.58
2018-11-23T15:33:42.258Z,94215.45
2018-11-23T15:36:11.778Z,94215.03
2018-11-23T15:38:40.676Z,94212.27
2018-11-23T15:41:09.352Z,94215.10
2018-11-23T15:43:37.897Z,94217.64
2018-11-23T15:46:06.649Z,94233.81
2018-11-23T15:48:35.332Z,94230.24
2018-11-23T15:51:07.361Z,94236.60
2018-11-23T15:53:36.066Z,94236.48
2018-11-23T15:56:04.485Z,94235.57
2018-11-23T15:58:33.130Z,94237.70
2018-11-23T16:01:01.933Z,94244.52
2018-11-23T16:03:30.416Z,94245.77
2018-11-23T16:05:58.948Z,94256.87
2018-11-23T16:08:27.653Z,94265.02
2018-11-23T16:10:56.380Z,94259.20
2018-11-23T16:13:24.792Z,94258.83
2018-11-23T16:15:53.264Z,94268.86
2018-11-23T16:18:21.919Z,94270.27
2018-11-23T16:20:50.417Z,94277.13
2018-11-23T16:23:20.208Z,94274.44
2018-11-23T16:25:49.448Z,94273.89
2018-11-23T16:28:17.981Z,94277.27
2018-11-23T16:30:49.585Z,94277.68
2018-11-23T16:33:22.814Z,94278.52
2018-11-23T16:35:51.644Z,94281.05
2018-11-23T16:38:21.630Z,94277.77
2018-11-23T16:40:51.907Z,94274.27
2018-11-23T16:43:20.634Z,94273.06
2018-11-23T16:45:49.413Z,94276.59
2018-11-23T16:48:18.794Z,94275.68
2018-11-23T16:50:47.479Z,94276.59
2018-11-23T16:53:16.096Z,94275.26
2018-11-23T16:55:44.724Z,94270.94
2018-11-23T16:58:13.876Z,94267.11
2018-11-23T17:00:44.906Z,94273.27
2018-11-23T17:03:15.125Z,94277.33
2018-11-23T17:05:45.234Z,94270.97
2018-11-23T17:08:13.751Z,94271.09
2018-11-23T17:10:42.666Z,94277.41
2018-11-23T17:13:11.100Z,94278.61
2018-11-23T17:15:39.695Z,94278.28
2018-11-23T17:18:08.891Z,94276.36
2018-11-23T17:20:38.418Z,94275.60
2018-11-23T17:23:08.044Z,94279.05
2018-11-23T17:25:36.677Z,94275.75
2018-11-23T17:28:06.867Z,94280.34
2018-11-23T17:30:35.963Z,94282.38
2018-11-23T17:33:04.793Z,94280.22
2018-11-23T17:35:33.360Z,94291.63
2018-11-23T17:38:01.965Z,94292.04
2018-11-23T17:40:32.160Z,94291.17
2018-11-23T17:43:00.872Z,94287.30
2018-11-23T17:45:30.781Z,94289.39
2018-11-23T17:47:59.402Z,94295.00
2018-11-23T17:50:30.061Z,94294.16
2018-11-23T17:52:59.017Z,94295.49
2018-11-23T17:55:27.650Z,94290.30
2018-11-23T17:57:56.574Z,94295.19
2018-11-23T18:00:29.345Z,94295.27
2018-11-23T18:02:58.929Z,94292.70
2018-11-23T18:05:28.293Z,94285.49
2018-11-23T18:07:57.119Z,94289.36
2018-11-23T18:10:27.350Z,94287.43
2018-11-23T18:12:56.863Z,94289.70
2018-11-23T18:15:27.786Z,94292.36
2018-11-23T18:17:57.191Z,94294.55
2018-11-23T18:20:26.777Z,94289.82
2018-11-23T18:22:56.203Z,94295.92
2018-11-23T18:25:27.148Z,94294.22
2018-11-23T18:28:01.758Z,94294.70
2018-11-23T18:30:32.630Z,94293.42
2018-11-23T18:33:02.432Z,94291.64
2018-11-23T18:35:31.879Z,94292.13
2018-11-23T18:38:00.887Z,94295.92
2018-11-23T18:40:32.313Z,94290.00
2018-11-23T18:42:58.741Z,94293.53
2018-11-23T18:45:27.422Z,94297.50
2018-11-23T18:47:56.004Z,94291.86
2018-11-23T18:50:24.607Z,94294.86
2018-11-23T18:52:53.171Z,94295.46
2018-11-23T18:55:22.171Z,94292.58
2018-11-23T18:57:51.199Z,94291.78
2018-11-23T19:00:20.232Z,94292.34
2018-11-23T19:02:49.279Z,94289.45
2018-11-23T19:05:19.130Z,94289.36
2018-11-23T19:07:47.958Z,94292.70
2018-11-23T19:10:16.768Z,94294.97
2018-11-23T19:12:45.303Z,94294.92
2018-11-23T19:15:14.834Z,94292.52
2018-11-23T19:17:43.420Z,94288.88
2018-11-23T19:20:17.563Z,94292.92
2018-11-23T19:22:47.045Z,94295.73
2018-11-23T19:25:15.588Z,94295.32
2018-11-23T19:27:44.159Z,94291.11
2018-11-23T19:30:13.803Z,94297.41
2018-11-23T19:32:42.402Z,94299.18
2018-11-23T19:35:11.050Z,94301.82
2018-11-23T19:37:39.770Z,94300.88
2018-11-23T19:40:10.461Z,94297.54
2018-11-23T19:42:39.191Z,94301.41
2018-11-23T19:45:10.380Z,94300.60
2018-11-23T19:47:39.025Z,94308.32
2018-11-23T19:50:11.117Z,94300.66
2018-11-23T19:52:39.806Z,94304.95
2018-11-23T19:55:08.778Z,94299.94
2018-11-23T19:57:37.223Z,94298.68
2018-11-23T20:00:10.163Z,94299.13
2018-11-23T20:02:38.752Z,94297.74
2018-11-23T20:05:07.418Z,94301.70
2018-11-23T20:07:36.360Z,94306.91
2018-11-23T20:10:07.963Z,94302.22
2018-11-23T20:12:36.511Z,94296.23
2018-11-23T20:15:05.646Z,94300.16
2018-11-23T20:17:41.010Z,94309.72
2018-11-23T20:20:03.164Z,94310.17
2018-11-23T20:22:31.672Z,94307.14
2018-11-23T20:25:00.159Z,94315.77
2018-11-23T20:27:28.750Z,94318.37
2018-11-23T20:29:57.326Z,94315.73
2018-11-23T20:32:25.736Z,94320.45
2018-11-23T20:34:54.006Z,94322.58
2018-11-23T20:37:22.591Z,94317.30
2018-11-23T20:39:51.045Z,94319.39
2018-11-23T20:42:19.527Z,94313.38
2018-11-23T20:44:48.199Z,94314.25
2018-11-23T20:47:17.705Z,94309.23
2018-11-23T20:49:46.326Z,94316.05
2018-11-23T20:52:14.799Z,94320.78
2018-11-23T20:54:43.326Z,94322.32
2018-11-23T20:57:11.818Z,94322.19
2018-11-23T20:59:40.234Z,94318.30
2018-11-23T21:02:08.825Z,94314.92
2018-11-23T21:04:37.389Z,94311.58
2018-11-23T21:07:06.225Z,94309.94
2018-11-23T21:09:36.766Z,94312.19
2018-11-23T21:12:05.732Z,94317.82
2018-11-23T21:14:34.295Z,94310.97
2018-11-23T21:17:02.598Z,94307.11
2018-11-23T21:19:31.077Z,94310.52
2018-11-23T21:21:59.799Z,94307.59
2018-11-23T21:24:28.490Z,94310.52
2018-11-23T21:26:56.953Z,94310.17
2018-11-23T21:29:25.355Z,94305.89
2018-11-23T21:31:54.065Z,94303.87
2018-11-23T21:34:22.844Z,94304.80
2018-11-23T21:36:51.391Z,94304.00
2018-11-23T21:39:19.945Z,94305.77
2018-11-23T21:41:48.456Z,94311.39
2018-11-23T21:44:17.055Z,94304.92
2018-11-23T21:46:45.754Z,94308.78
2018-11-23T21:49:15.446Z,94312.32
2018-11-23T21:51:44.032Z,94306.38
2018-11-23T21:54:13.227Z,94308.95
2018-11-23T21:56:43.121Z,94308.53
2018-11-23T21:59:12.752Z,94306.44
2018-11-23T22:01:41.522Z,94312.38
2018-11-23T22:04:10.495Z,94315.92
2018-11-23T22:06:39.127Z,94316.34
2018-11-23T22:09:08.183Z,94308.27
2018-11-23T22:11:36.693Z,94307.91
2018-11-23T22:14:05.234Z,94307.52
2018-11-23T22:16:34.281Z,94304.59
2018-11-23T22:19:03.218Z,94306.39
2018-11-23T22:21:31.724Z,94304.23
2018-11-23T22:24:01.745Z,94304.66
2018-11-23T22:26:29.155Z,94302.23
2018-11-23T22:28:57.938Z,94301.38
2018-11-23T22:31:26.423Z,94300.59
2018-11-23T22:33:54.880Z,94298.15
2018-11-23T22:36:23.390Z,94296.86
2018-11-23T22:38:51.949Z,94298.18
2018-11-23T22:41:20.399Z,94302.52
2018-11-23T22:43:49.041Z,94307.63
2018-11-23T22:46:17.594Z,94296.45
2018-11-23T22:48:46.076Z,94305.89
2018-11-23T22:51:21.365Z,94306.19
2018-11-23T22:53:50.008Z,94302.30
2018-11-23T22:56:18.408Z,94301.52
2018-11-23T22:58:46.966Z,94302.90
2018-11-23T23:01:15.534Z,94307.14
2018-11-23T23:03:43.944Z,94300.33
2018-11-23T23:06:12.390Z,94309.41
2018-11-23T23:08:41.916Z,94309.83
2018-11-23T23:11:10.400Z,94303.11
2018-11-23T23:13:38.999Z,94301.16
2018-11-23T23:16:07.481Z,94293.55
2018-11-23T23:18:36.123Z,94300.59
2018-11-23T23:21:04.776Z,94296.38
2018-11-23T23:23:33.125Z,94293.13
2018-11-23T23:26:01.571Z,94298.83
2018-11-23T23:28:30.204Z,94297.23
2018-11-23T23:30:58.708Z,94295.73
2018-11-23T23:33:27.314Z,94299.21
2018-11-23T23:35:55.887Z,94295.44
2018-11-23T23:38:24.160Z,94300.18
2018-11-23T23:40:52.933Z,94308.91
2018-11-23T23:43:21.604Z,94306.81
2018-11-23T23:45:50.269Z,94304.16
2018-11-23T23:48:18.633Z,94303.53
2018-11-23T23:50:47.225Z,94310.03
2018-11-23T23:53:15.851Z,94312.75
2018-11-23T23:55:44.289Z,94309.86
2018-11-23T23:58:12.846Z,94308.32
